sensor_id;sensor_type;location;lat;lon;timestamp;temperature;humidity
2647;DHT22;1333;50.958;6.770;2024-01-11T00:00:24;-4.30;99.90
2647;DHT22;1333;50.958;6.770;2024-01-11T00:02:49;-4.20;99.90
2647;DHT22;1333;50.958;6.770;2024-01-11T00:05:15;-4.20;99.90
2647;DHT22;1333;50.958;6.770;2024-01-11T00:07:40;-4.20;99.90
2647;DHT22;1333;50.958;6.770;2024-01-11T00:10:06;-4.20;99.90
2647;DHT22;1333;50.958;6.770;2024-01-11T00:12:32;-4.20;99.90
2647;DHT22;1333;50.958;6.770;2024-01-11T00:14:57;-4.20;99.90
2647;DHT22;1333;50.958;6.770;2024-01-11T00:17:24;-4.20;99.90
2647;DHT22;1333;50.958;6.770;2024-01-11T00:19:50;-4.20;99.90
2647;DHT22;1333;50.958;6.770;2024-01-11T00:22:16;-4.10;99.90
2647;DHT22;1333;50.958;6.770;2024-01-11T00:24:42;-4.10;99.90
2647;DHT22;1333;50.958;6.770;2024-01-11T00:27:07;-4.10;99.90
2647;DHT22;1333;50.958;6.770;2024-01-11T00:29:33;-4.10;99.90
2647;DHT22;1333;50.958;6.770;2024-01-11T00:31:59;-4.10;99.90
2647;DHT22;1333;50.958;6.770;2024-01-11T00:34:24;-4.10;99.90
2647;DHT22;1333;50.958;6.770;2024-01-11T00:36:50;-4.10;99.90
2647;DHT22;1333;50.958;6.770;2024-01-11T00:39:15;-4.10;99.90
2647;DHT22;1333;50.958;6.770;2024-01-11T00:41:41;-4.10;99.90
2647;DHT22;1333;50.958;6.770;2024-01-11T00:44:06;-4.10;99.90
2647;DHT22;1333;50.958;6.770;2024-01-11T00:46:33;-4.10;99.90
2647;DHT22;1333;50.958;6.770;2024-01-11T00:48:58;-4.10;99.90
2647;DHT22;1333;50.958;6.770;2024-01-11T00:51:24;-4.10;99.90
2647;DHT22;1333;50.958;6.770;2024-01-11T00:53:49;-4.10;99.90
2647;DHT22;1333;50.958;6.770;2024-01-11T00:56:19;-4.20;99.90
2647;DHT22;1333;50.958;6.770;2024-01-11T00:58:44;-4.20;99.90
2647;DHT22;1333;50.958;6.770;2024-01-11T01:01:10;-4.20;99.90
2647;DHT22;1333;50.958;6.770;2024-01-11T01:03:36;-4.10;99.90
2647;DHT22;1333;50.958;6.770;2024-01-11T01:06:02;-4.20;99.90
2647;DHT22;1333;50.958;6.770;2024-01-11T01:08:28;-4.20;99.90
2647;DHT22;1333;50.958;6.770;2024-01-11T01:10:54;-4.20;99.90
2647;DHT22;1333;50.958;6.770;2024-01-11T01:13:20;-4.20;99.90
2647;DHT22;1333;50.958;6.770;2024-01-11T01:15:45;-4.30;99.90
2647;DHT22;1333;50.958;6.770;2024-01-11T01:18:11;-4.30;99.90
2647;DHT22;1333;50.958;6.770;2024-01-11T01:20:37;-4.30;99.90
2647;DHT22;1333;50.958;6.770;2024-01-11T01:23:02;-4.30;99.90
2647;DHT22;1333;50.958;6.770;2024-01-11T01:25:28;-4.30;99.90
2647;DHT22;1333;50.958;6.770;2024-01-11T01:27:54;-4.30;99.90
2647;DHT22;1333;50.958;6.770;2024-01-11T01:30:20;-4.30;99.90
2647;DHT22;1333;50.958;6.770;2024-01-11T01:32:46;-4.40;99.90
2647;DHT22;1333;50.958;6.770;2024-01-11T01:35:11;-4.40;99.90
2647;DHT22;1333;50.958;6.770;2024-01-11T01:37:37;-4.40;99.90
2647;DHT22;1333;50.958;6.770;2024-01-11T01:40:02;-4.40;99.90
2647;DHT22;1333;50.958;6.770;2024-01-11T01:42:28;-4.40;99.90
2647;DHT22;1333;50.958;6.770;2024-01-11T01:44:54;-4.40;99.90
2647;DHT22;1333;50.958;6.770;2024-01-11T01:47:19;-4.40;99.90
2647;DHT22;1333;50.958;6.770;2024-01-11T01:49:47;-4.40;99.90
2647;DHT22;1333;50.958;6.770;2024-01-11T01:52:14;-4.50;99.90
2647;DHT22;1333;50.958;6.770;2024-01-11T01:54:40;-4.50;99.90
2647;DHT22;1333;50.958;6.770;2024-01-11T01:57:07;-4.50;99.90
2647;DHT22;1333;50.958;6.770;2024-01-11T01:59:34;-4.50;99.90
2647;DHT22;1333;50.958;6.770;2024-01-11T02:02:00;-4.50;99.90
2647;DHT22;1333;50.958;6.770;2024-01-11T02:04:27;-4.50;99.90
2647;DHT22;1333;50.958;6.770;2024-01-11T02:06:53;-4.40;99.90
2647;DHT22;1333;50.958;6.770;2024-01-11T02:09:19;-4.50;99.90
2647;DHT22;1333;50.958;6.770;2024-01-11T02:11:45;-4.50;99.90
2647;DHT22;1333;50.958;6.770;2024-01-11T02:14:11;-4.50;99.90
2647;DHT22;1333;50.958;6.770;2024-01-11T02:16:37;-4.50;99.90
2647;DHT22;1333;50.958;6.770;2024-01-11T02:19:04;-4.50;99.90
2647;DHT22;1333;50.958;6.770;2024-01-11T02:21:31;-4.50;99.90
2647;DHT22;1333;50.958;6.770;2024-01-11T02:24:03;-4.50;99.90
2647;DHT22;1333;50.958;6.770;2024-01-11T02:26:29;-4.60;99.90
2647;DHT22;1333;50.958;6.770;2024-01-11T02:28:55;-4.60;99.90
2647;DHT22;1333;50.958;6.770;2024-01-11T02:31:20;-4.60;99.90
2647;DHT22;1333;50.958;6.770;2024-01-11T02:33:46;-4.60;99.90
2647;DHT22;1333;50.958;6.770;2024-01-11T02:36:13;-4.70;99.90
2647;DHT22;1333;50.958;6.770;2024-01-11T02:38:41;-4.70;99.90
2647;DHT22;1333;50.958;6.770;2024-01-11T02:41:07;-4.70;99.90
2647;DHT22;1333;50.958;6.770;2024-01-11T02:43:33;-4.70;99.90
2647;DHT22;1333;50.958;6.770;2024-01-11T02:46:01;-4.70;99.90
2647;DHT22;1333;50.958;6.770;2024-01-11T02:48:30;-4.70;99.90
2647;DHT22;1333;50.958;6.770;2024-01-11T02:50:57;-4.70;99.90
2647;DHT22;1333;50.958;6.770;2024-01-11T02:53:23;-4.80;99.90
2647;DHT22;1333;50.958;6.770;2024-01-11T02:55:52;-4.70;99.90
2647;DHT22;1333;50.958;6.770;2024-01-11T02:58:17;-4.80;99.90
2647;DHT22;1333;50.958;6.770;2024-01-11T03:00:43;-4.80;99.90
2647;DHT22;1333;50.958;6.770;2024-01-11T03:03:08;-4.80;99.90
2647;DHT22;1333;50.958;6.770;2024-01-11T03:05:34;-4.80;99.90
2647;DHT22;1333;50.958;6.770;2024-01-11T03:07:59;-4.80;99.90
2647;DHT22;1333;50.958;6.770;2024-01-11T03:10:25;-4.80;99.90
2647;DHT22;1333;50.958;6.770;2024-01-11T03:12:51;-4.90;99.90
2647;DHT22;1333;50.958;6.770;2024-01-11T03:15:16;-4.80;99.90
2647;DHT22;1333;50.958;6.770;2024-01-11T03:17:42;-4.90;99.90
2647;DHT22;1333;50.958;6.770;2024-01-11T03:20:08;-4.90;99.90
2647;DHT22;1333;50.958;6.770;2024-01-11T03:22:33;-4.90;99.90
2647;DHT22;1333;50.958;6.770;2024-01-11T03:24:59;-4.90;99.90
2647;DHT22;1333;50.958;6.770;2024-01-11T03:27:25;-4.90;99.90
2647;DHT22;1333;50.958;6.770;2024-01-11T03:29:50;-4.90;99.90
2647;DHT22;1333;50.958;6.770;2024-01-11T03:32:16;-4.90;99.90
2647;DHT22;1333;50.958;6.770;2024-01-11T03:34:41;-4.90;99.90
2647;DHT22;1333;50.958;6.770;2024-01-11T03:37:07;-4.90;99.90
2647;DHT22;1333;50.958;6.770;2024-01-11T03:39:34;-5.00;99.90
2647;DHT22;1333;50.958;6.770;2024-01-11T03:41:59;-5.00;99.90
2647;DHT22;1333;50.958;6.770;2024-01-11T03:44:25;-5.00;99.90
2647;DHT22;1333;50.958;6.770;2024-01-11T03:46:50;-5.00;99.90
2647;DHT22;1333;50.958;6.770;2024-01-11T03:49:17;-5.00;99.90
2647;DHT22;1333;50.958;6.770;2024-01-11T03:51:42;-5.00;99.90
2647;DHT22;1333;50.958;6.770;2024-01-11T03:54:08;-5.00;99.90
2647;DHT22;1333;50.958;6.770;2024-01-11T03:56:36;-5.00;99.90
2647;DHT22;1333;50.958;6.770;2024-01-11T03:59:02;-5.00;99.90
2647;DHT22;1333;50.958;6.770;2024-01-11T04:01:27;-5.00;99.90
2647;DHT22;1333;50.958;6.770;2024-01-11T04:03:53;-5.00;99.90
2647;DHT22;1333;50.958;6.770;2024-01-11T04:06:22;-5.10;99.90
2647;DHT22;1333;50.958;6.770;2024-01-11T04:08:49;-5.10;99.90
2647;DHT22;1333;50.958;6.770;2024-01-11T04:11:15;-5.10;99.90
2647;DHT22;1333;50.958;6.770;2024-01-11T04:13:40;-5.10;99.90
2647;DHT22;1333;50.958;6.770;2024-01-11T04:16:06;-5.10;99.90
2647;DHT22;1333;50.958;6.770;2024-01-11T04:18:32;-5.10;99.90
2647;DHT22;1333;50.958;6.770;2024-01-11T04:20:58;-5.20;99.90
2647;DHT22;1333;50.958;6.770;2024-01-11T04:23:24;-5.20;99.90
2647;DHT22;1333;50.958;6.770;2024-01-11T04:25:50;-5.20;99.90
2647;DHT22;1333;50.958;6.770;2024-01-11T04:28:16;-5.20;99.90
2647;DHT22;1333;50.958;6.770;2024-01-11T04:30:42;-5.20;99.90
2647;DHT22;1333;50.958;6.770;2024-01-11T04:33:08;-5.20;99.90
2647;DHT22;1333;50.958;6.770;2024-01-11T04:35:33;-5.30;99.90
2647;DHT22;1333;50.958;6.770;2024-01-11T04:37:59;-5.30;99.90
2647;DHT22;1333;50.958;6.770;2024-01-11T04:40:24;-5.30;99.90
2647;DHT22;1333;50.958;6.770;2024-01-11T04:42:50;-5.30;99.90
2647;DHT22;1333;50.958;6.770;2024-01-11T04:45:15;-5.30;99.90
2647;DHT22;1333;50.958;6.770;2024-01-11T04:47:41;-5.30;99.90
2647;DHT22;1333;50.958;6.770;2024-01-11T04:50:07;-5.30;99.90
2647;DHT22;1333;50.958;6.770;2024-01-11T04:52:32;-5.30;99.90
2647;DHT22;1333;50.958;6.770;2024-01-11T04:54:58;-5.30;99.90
2647;DHT22;1333;50.958;6.770;2024-01-11T04:57:24;-5.30;99.90
2647;DHT22;1333;50.958;6.770;2024-01-11T04:59:49;-5.30;99.90
2647;DHT22;1333;50.958;6.770;2024-01-11T05:02:15;-5.30;99.90
2647;DHT22;1333;50.958;6.770;2024-01-11T05:04:40;-5.30;99.90
2647;DHT22;1333;50.958;6.770;2024-01-11T05:07:06;-5.30;99.90
2647;DHT22;1333;50.958;6.770;2024-01-11T05:09:31;-5.30;99.90
2647;DHT22;1333;50.958;6.770;2024-01-11T05:11:57;-5.30;99.90
2647;DHT22;1333;50.958;6.770;2024-01-11T05:14:22;-5.30;99.90
2647;DHT22;1333;50.958;6.770;2024-01-11T05:16:48;-5.30;99.90
2647;DHT22;1333;50.958;6.770;2024-01-11T05:19:13;-5.30;99.90
2647;DHT22;1333;50.958;6.770;2024-01-11T05:21:39;-5.30;99.90
2647;DHT22;1333;50.958;6.770;2024-01-11T05:24:04;-5.30;99.90
2647;DHT22;1333;50.958;6.770;2024-01-11T05:26:31;-5.20;99.90
2647;DHT22;1333;50.958;6.770;2024-01-11T05:28:57;-5.30;99.90
2647;DHT22;1333;50.958;6.770;2024-01-11T05:31:22;-5.20;99.90
2647;DHT22;1333;50.958;6.770;2024-01-11T05:33:48;-5.20;99.90
2647;DHT22;1333;50.958;6.770;2024-01-11T05:36:13;-5.20;99.90
2647;DHT22;1333;50.958;6.770;2024-01-11T05:38:39;-5.20;99.90
2647;DHT22;1333;50.958;6.770;2024-01-11T05:41:05;-5.20;99.90
2647;DHT22;1333;50.958;6.770;2024-01-11T05:43:31;-5.20;99.90
2647;DHT22;1333;50.958;6.770;2024-01-11T05:45:56;-5.20;99.90
2647;DHT22;1333;50.958;6.770;2024-01-11T05:48:22;-5.10;99.90
2647;DHT22;1333;50.958;6.770;2024-01-11T05:50:47;-5.10;99.90
2647;DHT22;1333;50.958;6.770;2024-01-11T05:53:13;-5.10;99.90
2647;DHT22;1333;50.958;6.770;2024-01-11T05:55:39;-5.10;99.90
2647;DHT22;1333;50.958;6.770;2024-01-11T05:58:05;-5.20;99.90
2647;DHT22;1333;50.958;6.770;2024-01-11T06:00:30;-5.10;99.90
2647;DHT22;1333;50.958;6.770;2024-01-11T06:02:56;-5.20;99.90
2647;DHT22;1333;50.958;6.770;2024-01-11T06:05:21;-5.20;99.90
2647;DHT22;1333;50.958;6.770;2024-01-11T06:07:47;-5.20;99.90
2647;DHT22;1333;50.958;6.770;2024-01-11T06:10:14;-5.20;99.90
2647;DHT22;1333;50.958;6.770;2024-01-11T06:12:40;-5.20;99.90
2647;DHT22;1333;50.958;6.770;2024-01-11T06:15:06;-5.20;99.90
2647;DHT22;1333;50.958;6.770;2024-01-11T06:17:32;-5.20;99.90
2647;DHT22;1333;50.958;6.770;2024-01-11T06:19:57;-5.20;99.90
2647;DHT22;1333;50.958;6.770;2024-01-11T06:22:23;-5.20;99.90
2647;DHT22;1333;50.958;6.770;2024-01-11T06:24:48;-5.20;99.90
2647;DHT22;1333;50.958;6.770;2024-01-11T06:27:14;-5.20;99.90
2647;DHT22;1333;50.958;6.770;2024-01-11T06:29:39;-5.20;99.90
2647;DHT22;1333;50.958;6.770;2024-01-11T06:32:05;-5.20;99.90
2647;DHT22;1333;50.958;6.770;2024-01-11T06:34:31;-5.20;99.90
2647;DHT22;1333;50.958;6.770;2024-01-11T06:36:56;-5.20;99.90
2647;DHT22;1333;50.958;6.770;2024-01-11T06:39:22;-5.20;99.90
2647;DHT22;1333;50.958;6.770;2024-01-11T06:41:47;-5.30;99.90
2647;DHT22;1333;50.958;6.770;2024-01-11T06:44:13;-5.30;99.90
2647;DHT22;1333;50.958;6.770;2024-01-11T06:46:38;-5.30;99.90
2647;DHT22;1333;50.958;6.770;2024-01-11T06:49:07;-5.30;99.90
2647;DHT22;1333;50.958;6.770;2024-01-11T06:51:33;-5.40;99.90
2647;DHT22;1333;50.958;6.770;2024-01-11T06:53:59;-5.40;99.90
2647;DHT22;1333;50.958;6.770;2024-01-11T06:56:27;-5.40;99.90
2647;DHT22;1333;50.958;6.770;2024-01-11T06:58:52;-5.40;99.90
2647;DHT22;1333;50.958;6.770;2024-01-11T07:01:18;-5.40;99.90
2647;DHT22;1333;50.958;6.770;2024-01-11T07:03:44;-5.40;99.90
2647;DHT22;1333;50.958;6.770;2024-01-11T07:06:10;-5.40;99.90
2647;DHT22;1333;50.958;6.770;2024-01-11T07:08:35;-5.40;99.90
2647;DHT22;1333;50.958;6.770;2024-01-11T07:11:01;-5.40;99.90
2647;DHT22;1333;50.958;6.770;2024-01-11T07:13:28;-5.40;99.90
2647;DHT22;1333;50.958;6.770;2024-01-11T07:15:54;-5.40;99.90
2647;DHT22;1333;50.958;6.770;2024-01-11T07:18:21;-5.40;99.90
2647;DHT22;1333;50.958;6.770;2024-01-11T07:20:46;-5.40;99.90
2647;DHT22;1333;50.958;6.770;2024-01-11T07:23:13;-5.40;99.90
2647;DHT22;1333;50.958;6.770;2024-01-11T07:25:39;-5.40;99.90
2647;DHT22;1333;50.958;6.770;2024-01-11T07:28:05;-5.40;99.90
2647;DHT22;1333;50.958;6.770;2024-01-11T07:30:30;-5.40;99.90
2647;DHT22;1333;50.958;6.770;2024-01-11T07:32:56;-5.40;99.90
2647;DHT22;1333;50.958;6.770;2024-01-11T07:35:21;-5.40;99.90
2647;DHT22;1333;50.958;6.770;2024-01-11T07:37:47;-5.50;99.90
2647;DHT22;1333;50.958;6.770;2024-01-11T07:40:12;-5.40;99.90
2647;DHT22;1333;50.958;6.770;2024-01-11T07:42:39;-5.40;99.90
2647;DHT22;1333;50.958;6.770;2024-01-11T07:45:09;-5.40;99.90
2647;DHT22;1333;50.958;6.770;2024-01-11T07:47:35;-5.30;99.90
2647;DHT22;1333;50.958;6.770;2024-01-11T07:50:05;-5.30;99.90
2647;DHT22;1333;50.958;6.770;2024-01-11T07:52:38;-5.30;99.90
2647;DHT22;1333;50.958;6.770;2024-01-11T07:55:04;-5.20;99.90
2647;DHT22;1333;50.958;6.770;2024-01-11T07:57:34;-5.20;99.90
2647;DHT22;1333;50.958;6.770;2024-01-11T08:00:00;-5.10;99.90
2647;DHT22;1333;50.958;6.770;2024-01-11T08:02:26;-5.10;99.90
2647;DHT22;1333;50.958;6.770;2024-01-11T08:04:51;-5.00;99.90
2647;DHT22;1333;50.958;6.770;2024-01-11T08:07:17;-5.00;99.90
2647;DHT22;1333;50.958;6.770;2024-01-11T08:09:42;-4.90;99.90
2647;DHT22;1333;50.958;6.770;2024-01-11T08:12:11;-4.80;99.90
2647;DHT22;1333;50.958;6.770;2024-01-11T08:14:36;-4.70;99.90
2647;DHT22;1333;50.958;6.770;2024-01-11T08:17:02;-4.60;99.90
2647;DHT22;1333;50.958;6.770;2024-01-11T08:19:30;-4.40;99.90
2647;DHT22;1333;50.958;6.770;2024-01-11T08:21:55;-4.10;99.90
2647;DHT22;1333;50.958;6.770;2024-01-11T08:24:22;-2.90;99.90
2647;DHT22;1333;50.958;6.770;2024-01-11T08:26:48;-1.50;99.90
2647;DHT22;1333;50.958;6.770;2024-01-11T08:29:14;-0.10;99.90
2647;DHT22;1333;50.958;6.770;2024-01-11T08:31:39;1.20;99.90
2647;DHT22;1333;50.958;6.770;2024-01-11T08:34:05;2.60;99.90
2647;DHT22;1333;50.958;6.770;2024-01-11T08:36:31;3.90;99.90
2647;DHT22;1333;50.958;6.770;2024-01-11T08:38:59;5.20;99.90
2647;DHT22;1333;50.958;6.770;2024-01-11T08:41:25;6.60;99.90
2647;DHT22;1333;50.958;6.770;2024-01-11T08:43:50;7.70;99.90
2647;DHT22;1333;50.958;6.770;2024-01-11T08:46:26;8.80;99.90
2647;DHT22;1333;50.958;6.770;2024-01-11T08:48:53;9.50;99.90
2647;DHT22;1333;50.958;6.770;2024-01-11T08:51:19;10.10;99.90
2647;DHT22;1333;50.958;6.770;2024-01-11T08:53:44;10.90;96.90
2647;DHT22;1333;50.958;6.770;2024-01-11T08:56:10;11.80;92.40
2647;DHT22;1333;50.958;6.770;2024-01-11T08:58:35;12.80;71.80
2647;DHT22;1333;50.958;6.770;2024-01-11T09:01:02;13.40;60.90
2647;DHT22;1333;50.958;6.770;2024-01-11T09:03:28;13.90;54.50
2647;DHT22;1333;50.958;6.770;2024-01-11T09:05:54;14.30;49.90
2647;DHT22;1333;50.958;6.770;2024-01-11T09:08:22;14.70;47.10
2647;DHT22;1333;50.958;6.770;2024-01-11T09:10:48;15.10;46.10
2647;DHT22;1333;50.958;6.770;2024-01-11T09:13:13;15.00;43.70
2647;DHT22;1333;50.958;6.770;2024-01-11T09:15:41;15.00;43.00
2647;DHT22;1333;50.958;6.770;2024-01-11T09:18:06;15.00;42.30
2647;DHT22;1333;50.958;6.770;2024-01-11T09:20:32;15.10;42.30
2647;DHT22;1333;50.958;6.770;2024-01-11T09:22:58;15.20;41.30
2647;DHT22;1333;50.958;6.770;2024-01-11T09:25:24;15.20;39.80
2647;DHT22;1333;50.958;6.770;2024-01-11T09:27:50;14.80;38.50
2647;DHT22;1333;50.958;6.770;2024-01-11T09:30:15;14.40;38.70
2647;DHT22;1333;50.958;6.770;2024-01-11T09:32:41;14.30;39.10
2647;DHT22;1333;50.958;6.770;2024-01-11T09:35:06;14.30;39.30
2647;DHT22;1333;50.958;6.770;2024-01-11T09:37:32;14.10;38.70
2647;DHT22;1333;50.958;6.770;2024-01-11T09:39:58;14.10;39.20
2647;DHT22;1333;50.958;6.770;2024-01-11T09:42:26;14.10;38.50
2647;DHT22;1333;50.958;6.770;2024-01-11T09:44:54;14.30;39.30
2647;DHT22;1333;50.958;6.770;2024-01-11T09:47:21;15.20;40.10
2647;DHT22;1333;50.958;6.770;2024-01-11T09:49:48;16.40;39.80
2647;DHT22;1333;50.958;6.770;2024-01-11T09:52:16;17.30;38.20
2647;DHT22;1333;50.958;6.770;2024-01-11T09:54:44;18.10;36.20
2647;DHT22;1333;50.958;6.770;2024-01-11T09:57:11;18.50;34.40
2647;DHT22;1333;50.958;6.770;2024-01-11T09:59:37;18.60;32.50
2647;DHT22;1333;50.958;6.770;2024-01-11T10:02:03;18.60;31.90
2647;DHT22;1333;50.958;6.770;2024-01-11T10:04:29;18.70;31.10
2647;DHT22;1333;50.958;6.770;2024-01-11T10:06:55;18.60;30.40
2647;DHT22;1333;50.958;6.770;2024-01-11T10:09:22;18.70;30.10
2647;DHT22;1333;50.958;6.770;2024-01-11T10:11:48;18.80;29.90
2647;DHT22;1333;50.958;6.770;2024-01-11T10:14:14;18.50;29.50
2647;DHT22;1333;50.958;6.770;2024-01-11T10:16:42;18.60;29.70
2647;DHT22;1333;50.958;6.770;2024-01-11T10:19:08;19.00;30.00
2647;DHT22;1333;50.958;6.770;2024-01-11T10:21:38;19.90;30.00
2647;DHT22;1333;50.958;6.770;2024-01-11T10:24:04;20.80;29.60
2647;DHT22;1333;50.958;6.770;2024-01-11T10:26:30;21.60;29.00
2647;DHT22;1333;50.958;6.770;2024-01-11T10:28:59;22.20;28.30
2647;DHT22;1333;50.958;6.770;2024-01-11T10:31:28;22.80;27.60
2647;DHT22;1333;50.958;6.770;2024-01-11T10:33:53;22.90;26.60
2647;DHT22;1333;50.958;6.770;2024-01-11T10:36:19;22.80;26.60
2647;DHT22;1333;50.958;6.770;2024-01-11T10:38:47;23.00;26.60
2647;DHT22;1333;50.958;6.770;2024-01-11T10:41:13;23.50;26.50
2647;DHT22;1333;50.958;6.770;2024-01-11T10:43:43;24.20;26.40
2647;DHT22;1333;50.958;6.770;2024-01-11T10:46:11;24.90;26.20
2647;DHT22;1333;50.958;6.770;2024-01-11T10:48:38;25.50;25.50
2647;DHT22;1333;50.958;6.770;2024-01-11T10:51:07;25.90;25.00
2647;DHT22;1333;50.958;6.770;2024-01-11T10:53:45;26.10;24.80
2647;DHT22;1333;50.958;6.770;2024-01-11T10:56:11;26.50;24.30
2647;DHT22;1333;50.958;6.770;2024-01-11T10:58:42;27.00;23.90
2647;DHT22;1333;50.958;6.770;2024-01-11T11:01:10;27.60;23.70
2647;DHT22;1333;50.958;6.770;2024-01-11T11:03:36;27.90;23.20
2647;DHT22;1333;50.958;6.770;2024-01-11T11:06:05;28.10;22.60
2647;DHT22;1333;50.958;6.770;2024-01-11T11:08:32;28.10;22.10
2647;DHT22;1333;50.958;6.770;2024-01-11T11:11:01;27.90;21.70
2647;DHT22;1333;50.958;6.770;2024-01-11T11:13:28;27.40;21.40
2647;DHT22;1333;50.958;6.770;2024-01-11T11:15:54;27.20;21.40
2647;DHT22;1333;50.958;6.770;2024-01-11T11:18:22;27.10;21.70
2647;DHT22;1333;50.958;6.770;2024-01-11T11:20:48;27.00;21.90
2647;DHT22;1333;50.958;6.770;2024-01-11T11:23:16;27.00;21.70
2647;DHT22;1333;50.958;6.770;2024-01-11T11:25:45;27.10;21.80
2647;DHT22;1333;50.958;6.770;2024-01-11T11:28:12;27.20;21.80
2647;DHT22;1333;50.958;6.770;2024-01-11T11:30:40;27.60;22.00
2647;DHT22;1333;50.958;6.770;2024-01-11T11:35:35;28.60;21.40
2647;DHT22;1333;50.958;6.770;2024-01-11T11:38:01;29.00;21.20
2647;DHT22;1333;50.958;6.770;2024-01-11T11:40:37;29.30;21.00
2647;DHT22;1333;50.958;6.770;2024-01-11T11:43:05;29.50;20.90
2647;DHT22;1333;50.958;6.770;2024-01-11T11:45:31;29.70;20.60
2647;DHT22;1333;50.958;6.770;2024-01-11T11:47:57;29.70;20.30
2647;DHT22;1333;50.958;6.770;2024-01-11T11:50:23;29.60;20.30
2647;DHT22;1333;50.958;6.770;2024-01-11T11:52:55;29.70;20.40
2647;DHT22;1333;50.958;6.770;2024-01-11T11:55:24;29.70;20.50
2647;DHT22;1333;50.958;6.770;2024-01-11T11:57:53;30.00;20.50
2647;DHT22;1333;50.958;6.770;2024-01-11T12:00:23;30.30;20.50
2647;DHT22;1333;50.958;6.770;2024-01-11T12:02:49;30.70;20.30
2647;DHT22;1333;50.958;6.770;2024-01-11T12:05:17;30.80;20.10
2647;DHT22;1333;50.958;6.770;2024-01-11T12:07:44;30.90;19.30
2647;DHT22;1333;50.958;6.770;2024-01-11T12:10:10;30.90;19.10
2647;DHT22;1333;50.958;6.770;2024-01-11T12:12:36;30.80;18.90
2647;DHT22;1333;50.958;6.770;2024-01-11T12:15:04;30.40;19.00
2647;DHT22;1333;50.958;6.770;2024-01-11T12:17:30;30.20;19.20
2647;DHT22;1333;50.958;6.770;2024-01-11T12:19:55;29.90;19.20
2647;DHT22;1333;50.958;6.770;2024-01-11T12:22:21;29.70;19.30
2647;DHT22;1333;50.958;6.770;2024-01-11T12:24:46;29.70;19.40
2647;DHT22;1333;50.958;6.770;2024-01-11T12:27:12;29.70;19.50
2647;DHT22;1333;50.958;6.770;2024-01-11T12:29:42;29.80;19.30
2647;DHT22;1333;50.958;6.770;2024-01-11T12:32:08;29.70;19.40
2647;DHT22;1333;50.958;6.770;2024-01-11T12:34:36;29.70;19.40
2647;DHT22;1333;50.958;6.770;2024-01-11T12:37:02;29.50;19.10
2647;DHT22;1333;50.958;6.770;2024-01-11T12:39:30;29.30;19.20
2647;DHT22;1333;50.958;6.770;2024-01-11T12:41:56;29.20;19.40
2647;DHT22;1333;50.958;6.770;2024-01-11T12:44:23;29.20;19.30
2647;DHT22;1333;50.958;6.770;2024-01-11T12:46:49;29.20;19.30
2647;DHT22;1333;50.958;6.770;2024-01-11T12:49:16;29.30;19.60
2647;DHT22;1333;50.958;6.770;2024-01-11T12:51:41;29.10;18.70
2647;DHT22;1333;50.958;6.770;2024-01-11T12:54:12;29.20;19.10
2647;DHT22;1333;50.958;6.770;2024-01-11T12:56:42;29.10;19.10
2647;DHT22;1333;50.958;6.770;2024-01-11T12:59:08;29.00;19.10
2647;DHT22;1333;50.958;6.770;2024-01-11T13:01:35;28.90;19.50
2647;DHT22;1333;50.958;6.770;2024-01-11T13:04:01;29.00;19.70
2647;DHT22;1333;50.958;6.770;2024-01-11T13:06:31;29.10;19.50
2647;DHT22;1333;50.958;6.770;2024-01-11T13:08:57;29.00;19.60
2647;DHT22;1333;50.958;6.770;2024-01-11T13:11:23;29.10;19.80
2647;DHT22;1333;50.958;6.770;2024-01-11T13:13:53;29.10;19.50
2647;DHT22;1333;50.958;6.770;2024-01-11T13:16:18;29.00;19.50
2647;DHT22;1333;50.958;6.770;2024-01-11T13:18:45;29.10;19.60
2647;DHT22;1333;50.958;6.770;2024-01-11T13:21:10;29.00;19.40
2647;DHT22;1333;50.958;6.770;2024-01-11T13:23:37;28.80;19.10
2647;DHT22;1333;50.958;6.770;2024-01-11T13:26:03;28.60;19.10
2647;DHT22;1333;50.958;6.770;2024-01-11T13:28:30;28.20;19.10
2647;DHT22;1333;50.958;6.770;2024-01-11T13:30:55;27.70;19.00
2647;DHT22;1333;50.958;6.770;2024-01-11T13:33:22;27.00;19.20
2647;DHT22;1333;50.958;6.770;2024-01-11T13:35:49;26.50;19.60
2647;DHT22;1333;50.958;6.770;2024-01-11T13:38:15;26.00;19.80
2647;DHT22;1333;50.958;6.770;2024-01-11T13:40:41;25.50;20.00
2647;DHT22;1333;50.958;6.770;2024-01-11T13:43:08;25.20;20.20
2647;DHT22;1333;50.958;6.770;2024-01-11T13:45:35;25.10;20.10
2647;DHT22;1333;50.958;6.770;2024-01-11T13:48:04;24.70;19.90
2647;DHT22;1333;50.958;6.770;2024-01-11T13:50:30;24.40;20.10
2647;DHT22;1333;50.958;6.770;2024-01-11T13:52:56;24.10;20.10
2647;DHT22;1333;50.958;6.770;2024-01-11T13:55:22;23.90;20.10
2647;DHT22;1333;50.958;6.770;2024-01-11T13:57:51;23.00;19.70
2647;DHT22;1333;50.958;6.770;2024-01-11T14:00:18;21.40;19.20
2647;DHT22;1333;50.958;6.770;2024-01-11T14:02:44;19.30;19.20
2647;DHT22;1333;50.958;6.770;2024-01-11T14:05:13;17.30;19.80
2647;DHT22;1333;50.958;6.770;2024-01-11T14:07:41;15.40;20.60
2647;DHT22;1333;50.958;6.770;2024-01-11T14:10:07;13.70;21.60
2647;DHT22;1333;50.958;6.770;2024-01-11T14:12:34;12.30;22.60
2647;DHT22;1333;50.958;6.770;2024-01-11T14:15:00;11.10;23.70
2647;DHT22;1333;50.958;6.770;2024-01-11T14:17:26;10.10;24.80
2647;DHT22;1333;50.958;6.770;2024-01-11T14:19:52;9.20;26.70
2647;DHT22;1333;50.958;6.770;2024-01-11T14:22:17;8.80;28.00
2647;DHT22;1333;50.958;6.770;2024-01-11T14:24:43;9.00;29.70
2647;DHT22;1333;50.958;6.770;2024-01-11T14:27:08;9.50;30.80
2647;DHT22;1333;50.958;6.770;2024-01-11T14:29:35;9.80;31.10
2647;DHT22;1333;50.958;6.770;2024-01-11T14:32:00;10.00;30.10
2647;DHT22;1333;50.958;6.770;2024-01-11T14:34:26;10.10;29.90
2647;DHT22;1333;50.958;6.770;2024-01-11T14:36:51;10.20;29.80
2647;DHT22;1333;50.958;6.770;2024-01-11T14:39:17;10.30;29.70
2647;DHT22;1333;50.958;6.770;2024-01-11T14:41:42;10.20;29.50
2647;DHT22;1333;50.958;6.770;2024-01-11T14:44:08;10.10;29.30
2647;DHT22;1333;50.958;6.770;2024-01-11T14:46:35;9.70;29.90
2647;DHT22;1333;50.958;6.770;2024-01-11T14:49:01;9.30;29.90
2647;DHT22;1333;50.958;6.770;2024-01-11T14:51:26;8.90;30.00
2647;DHT22;1333;50.958;6.770;2024-01-11T14:53:54;8.70;30.50
2647;DHT22;1333;50.958;6.770;2024-01-11T14:56:20;8.40;31.60
2647;DHT22;1333;50.958;6.770;2024-01-11T14:58:46;8.10;31.40
2647;DHT22;1333;50.958;6.770;2024-01-11T15:01:12;7.70;31.90
2647;DHT22;1333;50.958;6.770;2024-01-11T15:03:39;7.20;32.30
2647;DHT22;1333;50.958;6.770;2024-01-11T15:06:05;6.80;32.90
2647;DHT22;1333;50.958;6.770;2024-01-11T15:08:30;6.50;33.60
2647;DHT22;1333;50.958;6.770;2024-01-11T15:10:56;6.10;34.30
2647;DHT22;1333;50.958;6.770;2024-01-11T15:13:21;5.90;35.10
2647;DHT22;1333;50.958;6.770;2024-01-11T15:15:47;5.70;35.90
2647;DHT22;1333;50.958;6.770;2024-01-11T15:18:13;5.40;36.40
2647;DHT22;1333;50.958;6.770;2024-01-11T15:20:38;5.10;36.90
2647;DHT22;1333;50.958;6.770;2024-01-11T15:23:04;4.80;37.40
2647;DHT22;1333;50.958;6.770;2024-01-11T15:25:30;4.40;37.70
2647;DHT22;1333;50.958;6.770;2024-01-11T15:27:56;4.00;38.10
2647;DHT22;1333;50.958;6.770;2024-01-11T15:30:21;3.70;38.70
2647;DHT22;1333;50.958;6.770;2024-01-11T15:32:47;3.40;39.50
2647;DHT22;1333;50.958;6.770;2024-01-11T15:35:12;3.10;40.20
2647;DHT22;1333;50.958;6.770;2024-01-11T15:37:38;2.80;40.90
2647;DHT22;1333;50.958;6.770;2024-01-11T15:40:04;2.50;41.60
2647;DHT22;1333;50.958;6.770;2024-01-11T15:42:31;2.30;42.40
2647;DHT22;1333;50.958;6.770;2024-01-11T15:44:57;2.10;43.20
2647;DHT22;1333;50.958;6.770;2024-01-11T15:47:23;1.90;44.10
2647;DHT22;1333;50.958;6.770;2024-01-11T15:49:48;1.80;45.00
2647;DHT22;1333;50.958;6.770;2024-01-11T15:52:14;1.60;45.70
2647;DHT22;1333;50.958;6.770;2024-01-11T15:54:40;1.50;47.00
2647;DHT22;1333;50.958;6.770;2024-01-11T15:57:05;1.40;48.20
2647;DHT22;1333;50.958;6.770;2024-01-11T15:59:32;1.30;49.20